sensor_id;sensor_type;location;lat;lon;timestamp;P1;durP1;ratioP1;P2;durP2;ratioP2
11618;SDS011;5865;48.776;9.280;2023-11-21T00:01:24;5.67;;;2.90;;
11618;SDS011;5865;48.776;9.280;2023-11-21T00:04:08;7.83;;;3.40;;
11618;SDS011;5865;48.776;9.280;2023-11-21T00:06:42;9.13;;;4.10;;
11618;SDS011;5865;48.776;9.280;2023-11-21T00:09:12;6.30;;;3.40;;
11618;SDS011;5865;48.776;9.280;2023-11-21T00:11:40;8.13;;;3.90;;
11618;SDS011;5865;48.776;9.280;2023-11-21T00:14:09;5.57;;;3.17;;
11618;SDS011;5865;48.776;9.280;2023-11-21T00:16:36;6.10;;;2.90;;
11618;SDS011;5865;48.776;9.280;2023-11-21T00:19:04;7.00;;;2.90;;
11618;SDS011;5865;48.776;9.280;2023-11-21T00:21:33;5.33;;;2.60;;
11618;SDS011;5865;48.776;9.280;2023-11-21T00:24:01;7.37;;;3.13;;
11618;SDS011;5865;48.776;9.280;2023-11-21T00:26:29;8.10;;;2.90;;
11618;SDS011;5865;48.776;9.280;2023-11-21T00:29:03;6.90;;;2.77;;
11618;SDS011;5865;48.776;9.280;2023-11-21T00:31:33;8.23;;;3.27;;
11618;SDS011;5865;48.776;9.280;2023-11-21T00:34:02;5.10;;;3.03;;
11618;SDS011;5865;48.776;9.280;2023-11-21T00:36:30;5.93;;;3.57;;
11618;SDS011;5865;48.776;9.280;2023-11-21T00:38:57;7.37;;;3.80;;
11618;SDS011;5865;48.776;9.280;2023-11-21T00:41:29;12.23;;;4.23;;
11618;SDS011;5865;48.776;9.280;2023-11-21T00:43:57;8.33;;;4.17;;
11618;SDS011;5865;48.776;9.280;2023-11-21T00:46:26;7.63;;;3.00;;
11618;SDS011;5865;48.776;9.280;2023-11-21T00:48:54;9.03;;;2.93;;
11618;SDS011;5865;48.776;9.280;2023-11-21T00:51:22;6.73;;;2.87;;
11618;SDS011;5865;48.776;9.280;2023-11-21T00:53:50;6.17;;;2.90;;
11618;SDS011;5865;48.776;9.280;2023-11-21T00:56:17;5.93;;;2.73;;
11618;SDS011;5865;48.776;9.280;2023-11-21T00:58:47;6.00;;;2.60;;
11618;SDS011;5865;48.776;9.280;2023-11-21T01:01:17;6.47;;;2.80;;
11618;SDS011;5865;48.776;9.280;2023-11-21T01:03:45;7.27;;;2.70;;
11618;SDS011;5865;48.776;9.280;2023-11-21T01:06:12;5.17;;;2.70;;
11618;SDS011;5865;48.776;9.280;2023-11-21T01:08:41;7.07;;;2.67;;
11618;SDS011;5865;48.776;9.280;2023-11-21T01:11:10;5.27;;;2.40;;
11618;SDS011;5865;48.776;9.280;2023-11-21T01:13:37;6.43;;;2.30;;
11618;SDS011;5865;48.776;9.280;2023-11-21T01:16:07;4.20;;;1.80;;
11618;SDS011;5865;48.776;9.280;2023-11-21T01:18:35;6.33;;;2.23;;
11618;SDS011;5865;48.776;9.280;2023-11-21T01:21:03;6.13;;;2.23;;
11618;SDS011;5865;48.776;9.280;2023-11-21T01:23:30;3.83;;;2.20;;
11618;SDS011;5865;48.776;9.280;2023-11-21T01:25:57;6.60;;;2.43;;
11618;SDS011;5865;48.776;9.280;2023-11-21T01:28:25;5.67;;;1.83;;
11618;SDS011;5865;48.776;9.280;2023-11-21T01:30:52;7.33;;;1.90;;
11618;SDS011;5865;48.776;9.280;2023-11-21T01:33:23;6.77;;;1.97;;
11618;SDS011;5865;48.776;9.280;2023-11-21T01:35:51;2.93;;;1.60;;
11618;SDS011;5865;48.776;9.280;2023-11-21T01:38:20;7.17;;;2.27;;
11618;SDS011;5865;48.776;9.280;2023-11-21T01:40:48;4.00;;;1.80;;
11618;SDS011;5865;48.776;9.280;2023-11-21T01:43:15;4.80;;;1.73;;
11618;SDS011;5865;48.776;9.280;2023-11-21T01:45:43;6.20;;;1.83;;
11618;SDS011;5865;48.776;9.280;2023-11-21T01:48:11;2.97;;;1.40;;
11618;SDS011;5865;48.776;9.280;2023-11-21T01:50:43;5.53;;;1.93;;
11618;SDS011;5865;48.776;9.280;2023-11-21T01:53:11;3.87;;;1.63;;
11618;SDS011;5865;48.776;9.280;2023-11-21T01:55:39;5.27;;;1.73;;
11618;SDS011;5865;48.776;9.280;2023-11-21T01:58:07;4.20;;;1.80;;
11618;SDS011;5865;48.776;9.280;2023-11-21T02:00:35;4.13;;;1.87;;
11618;SDS011;5865;48.776;9.280;2023-11-21T02:03:03;3.87;;;1.63;;
11618;SDS011;5865;48.776;9.280;2023-11-21T02:05:32;3.07;;;1.53;;
11618;SDS011;5865;48.776;9.280;2023-11-21T02:08:00;5.63;;;2.00;;
11618;SDS011;5865;48.776;9.280;2023-11-21T02:10:28;4.63;;;1.97;;
11618;SDS011;5865;48.776;9.280;2023-11-21T02:12:57;4.93;;;1.80;;
11618;SDS011;5865;48.776;9.280;2023-11-21T02:15:27;4.93;;;1.80;;
11618;SDS011;5865;48.776;9.280;2023-11-21T02:17:55;5.17;;;2.10;;
11618;SDS011;5865;48.776;9.280;2023-11-21T02:20:23;5.60;;;1.73;;
11618;SDS011;5865;48.776;9.280;2023-11-21T02:22:53;3.63;;;1.50;;
11618;SDS011;5865;48.776;9.280;2023-11-21T02:25:23;3.63;;;1.53;;
11618;SDS011;5865;48.776;9.280;2023-11-21T02:27:51;4.77;;;1.63;;
11618;SDS011;5865;48.776;9.280;2023-11-21T02:30:20;3.17;;;1.40;;
11618;SDS011;5865;48.776;9.280;2023-11-21T02:32:47;4.33;;;1.70;;
11618;SDS011;5865;48.776;9.280;2023-11-21T02:35:14;6.30;;;1.90;;
11618;SDS011;5865;48.776;9.280;2023-11-21T02:37:42;4.27;;;1.90;;
11618;SDS011;5865;48.776;9.280;2023-11-21T02:40:12;4.07;;;1.47;;
11618;SDS011;5865;48.776;9.280;2023-11-21T02:42:43;4.83;;;1.70;;
11618;SDS011;5865;48.776;9.280;2023-11-21T02:45:10;5.07;;;1.63;;
11618;SDS011;5865;48.776;9.280;2023-11-21T02:47:41;2.80;;;1.63;;
11618;SDS011;5865;48.776;9.280;2023-11-21T02:50:09;3.33;;;1.50;;
11618;SDS011;5865;48.776;9.280;2023-11-21T02:52:36;3.33;;;1.50;;
11618;SDS011;5865;48.776;9.280;2023-11-21T02:55:04;3.83;;;1.50;;
11618;SDS011;5865;48.776;9.280;2023-11-21T02:57:37;3.27;;;1.47;;
11618;SDS011;5865;48.776;9.280;2023-11-21T03:00:07;3.37;;;1.40;;
11618;SDS011;5865;48.776;9.280;2023-11-21T03:02:38;4.60;;;1.63;;
11618;SDS011;5865;48.776;9.280;2023-11-21T03:05:05;4.10;;;1.57;;
11618;SDS011;5865;48.776;9.280;2023-11-21T03:07:34;2.00;;;1.33;;
11618;SDS011;5865;48.776;9.280;2023-11-21T03:10:01;3.33;;;1.30;;
11618;SDS011;5865;48.776;9.280;2023-11-21T03:12:29;3.83;;;1.50;;
11618;SDS011;5865;48.776;9.280;2023-11-21T03:14:58;3.80;;;1.67;;
11618;SDS011;5865;48.776;9.280;2023-11-21T03:17:26;2.83;;;1.40;;
11618;SDS011;5865;48.776;9.280;2023-11-21T03:19:54;4.03;;;1.30;;
11618;SDS011;5865;48.776;9.280;2023-11-21T03:22:22;3.37;;;1.40;;
11618;SDS011;5865;48.776;9.280;2023-11-21T03:24:49;2.60;;;1.10;;
11618;SDS011;5865;48.776;9.280;2023-11-21T03:27:26;3.20;;;1.10;;
11618;SDS011;5865;48.776;9.280;2023-11-21T03:29:53;2.60;;;1.13;;
11618;SDS011;5865;48.776;9.280;2023-11-21T03:32:23;2.50;;;1.10;;
11618;SDS011;5865;48.776;9.280;2023-11-21T03:34:54;3.27;;;1.10;;
11618;SDS011;5865;48.776;9.280;2023-11-21T03:37:36;3.23;;;1.00;;
11618;SDS011;5865;48.776;9.280;2023-11-21T03:40:07;2.20;;;1.10;;
11618;SDS011;5865;48.776;9.280;2023-11-21T03:42:35;2.23;;;1.13;;
11618;SDS011;5865;48.776;9.280;2023-11-21T03:45:02;3.17;;;1.20;;
11618;SDS011;5865;48.776;9.280;2023-11-21T03:47:32;1.47;;;0.97;;
11618;SDS011;5865;48.776;9.280;2023-11-21T03:50:00;1.70;;;1.00;;
11618;SDS011;5865;48.776;9.280;2023-11-21T03:52:28;1.77;;;1.10;;
11618;SDS011;5865;48.776;9.280;2023-11-21T03:54:55;1.83;;;1.00;;
11618;SDS011;5865;48.776;9.280;2023-11-21T03:57:22;2.17;;;1.10;;
11618;SDS011;5865;48.776;9.280;2023-11-21T03:59:53;1.80;;;1.00;;
11618;SDS011;5865;48.776;9.280;2023-11-21T04:02:20;2.60;;;1.17;;
11618;SDS011;5865;48.776;9.280;2023-11-21T04:04:48;1.57;;;0.97;;
11618;SDS011;5865;48.776;9.280;2023-11-21T04:07:18;1.70;;;1.00;;
11618;SDS011;5865;48.776;9.280;2023-11-21T04:09:46;1.93;;;1.00;;
11618;SDS011;5865;48.776;9.280;2023-11-21T04:12:13;2.70;;;1.20;;
11618;SDS011;5865;48.776;9.280;2023-11-21T04:14:40;2.13;;;1.00;;
11618;SDS011;5865;48.776;9.280;2023-11-21T04:17:07;2.27;;;0.93;;
11618;SDS011;5865;48.776;9.280;2023-11-21T04:19:35;1.03;;;0.80;;
11618;SDS011;5865;48.776;9.280;2023-11-21T04:22:03;2.77;;;1.10;;
11618;SDS011;5865;48.776;9.280;2023-11-21T04:24:30;1.57;;;1.10;;
11618;SDS011;5865;48.776;9.280;2023-11-21T04:26:57;1.53;;;1.00;;
11618;SDS011;5865;48.776;9.280;2023-11-21T04:29:25;2.20;;;1.20;;
11618;SDS011;5865;48.776;9.280;2023-11-21T04:31:53;1.73;;;1.20;;
11618;SDS011;5865;48.776;9.280;2023-11-21T04:34:20;2.20;;;0.90;;
11618;SDS011;5865;48.776;9.280;2023-11-21T04:36:47;1.23;;;0.97;;
11618;SDS011;5865;48.776;9.280;2023-11-21T04:39:17;2.30;;;1.10;;
11618;SDS011;5865;48.776;9.280;2023-11-21T04:41:45;1.93;;;0.93;;
11618;SDS011;5865;48.776;9.280;2023-11-21T04:44:12;2.73;;;1.30;;
11618;SDS011;5865;48.776;9.280;2023-11-21T04:46:41;1.70;;;1.10;;
11618;SDS011;5865;48.776;9.280;2023-11-21T04:49:09;2.47;;;1.00;;
11618;SDS011;5865;48.776;9.280;2023-11-21T04:51:38;1.70;;;0.90;;
11618;SDS011;5865;48.776;9.280;2023-11-21T04:54:05;3.60;;;1.00;;
11618;SDS011;5865;48.776;9.280;2023-11-21T04:56:37;2.47;;;1.03;;
11618;SDS011;5865;48.776;9.280;2023-11-21T04:59:04;2.30;;;0.93;;
11618;SDS011;5865;48.776;9.280;2023-11-21T05:01:31;1.23;;;0.90;;
11618;SDS011;5865;48.776;9.280;2023-11-21T05:03:58;1.27;;;0.90;;
11618;SDS011;5865;48.776;9.280;2023-11-21T05:06:27;4.63;;;1.00;;
11618;SDS011;5865;48.776;9.280;2023-11-21T05:08:54;1.53;;;0.90;;
11618;SDS011;5865;48.776;9.280;2023-11-21T05:11:24;2.07;;;1.10;;
11618;SDS011;5865;48.776;9.280;2023-11-21T05:13:53;1.37;;;0.80;;
11618;SDS011;5865;48.776;9.280;2023-11-21T05:16:21;1.77;;;1.00;;
11618;SDS011;5865;48.776;9.280;2023-11-21T05:18:48;4.00;;;1.00;;
11618;SDS011;5865;48.776;9.280;2023-11-21T05:21:16;1.83;;;1.03;;
11618;SDS011;5865;48.776;9.280;2023-11-21T05:23:46;1.13;;;0.80;;
11618;SDS011;5865;48.776;9.280;2023-11-21T05:26:12;2.07;;;1.00;;
11618;SDS011;5865;48.776;9.280;2023-11-21T05:28:44;1.73;;;1.10;;
11618;SDS011;5865;48.776;9.280;2023-11-21T05:31:12;3.10;;;0.90;;
11618;SDS011;5865;48.776;9.280;2023-11-21T05:33:40;1.63;;;1.10;;
11618;SDS011;5865;48.776;9.280;2023-11-21T05:36:07;2.57;;;1.27;;
11618;SDS011;5865;48.776;9.280;2023-11-21T05:38:35;1.77;;;1.30;;
11618;SDS011;5865;48.776;9.280;2023-11-21T05:41:02;1.30;;;1.10;;
11618;SDS011;5865;48.776;9.280;2023-11-21T05:43:30;1.90;;;0.93;;
11618;SDS011;5865;48.776;9.280;2023-11-21T05:45:57;2.93;;;1.10;;
11618;SDS011;5865;48.776;9.280;2023-11-21T05:48:26;1.33;;;0.90;;
11618;SDS011;5865;48.776;9.280;2023-11-21T05:50:53;1.40;;;1.00;;
11618;SDS011;5865;48.776;9.280;2023-11-21T05:53:29;0.73;;;0.73;;
11618;SDS011;5865;48.776;9.280;2023-11-21T05:56:18;2.40;;;1.10;;
11618;SDS011;5865;48.776;9.280;2023-11-21T05:59:05;2.07;;;1.10;;
11618;SDS011;5865;48.776;9.280;2023-11-21T06:01:32;1.27;;;1.00;;
11618;SDS011;5865;48.776;9.280;2023-11-21T06:04:05;1.60;;;1.00;;
11618;SDS011;5865;48.776;9.280;2023-11-21T06:06:33;1.43;;;0.90;;
11618;SDS011;5865;48.776;9.280;2023-11-21T06:09:00;1.30;;;0.87;;
11618;SDS011;5865;48.776;9.280;2023-11-21T06:11:28;1.00;;;0.90;;
11618;SDS011;5865;48.776;9.280;2023-11-21T06:13:55;1.33;;;1.13;;
11618;SDS011;5865;48.776;9.280;2023-11-21T06:16:23;2.47;;;1.10;;
11618;SDS011;5865;48.776;9.280;2023-11-21T06:18:53;3.17;;;1.00;;
11618;SDS011;5865;48.776;9.280;2023-11-21T06:21:22;2.20;;;1.00;;
11618;SDS011;5865;48.776;9.280;2023-11-21T06:23:49;1.33;;;1.00;;
11618;SDS011;5865;48.776;9.280;2023-11-21T06:26:18;2.30;;;1.00;;
11618;SDS011;5865;48.776;9.280;2023-11-21T06:28:59;1.90;;;1.10;;
11618;SDS011;5865;48.776;9.280;2023-11-21T06:31:32;2.13;;;1.07;;
11618;SDS011;5865;48.776;9.280;2023-11-21T06:34:00;1.50;;;1.13;;
11618;SDS011;5865;48.776;9.280;2023-11-21T06:36:31;1.10;;;1.00;;
11618;SDS011;5865;48.776;9.280;2023-11-21T06:38:59;2.87;;;1.23;;
11618;SDS011;5865;48.776;9.280;2023-11-21T06:41:26;2.70;;;1.30;;
11618;SDS011;5865;48.776;9.280;2023-11-21T06:43:55;1.63;;;1.27;;
11618;SDS011;5865;48.776;9.280;2023-11-21T06:46:24;1.70;;;1.27;;
11618;SDS011;5865;48.776;9.280;2023-11-21T06:48:53;2.60;;;1.30;;
11618;SDS011;5865;48.776;9.280;2023-11-21T06:51:21;2.87;;;1.40;;
11618;SDS011;5865;48.776;9.280;2023-11-21T06:54:00;2.27;;;1.20;;
11618;SDS011;5865;48.776;9.280;2023-11-21T06:56:28;2.30;;;1.07;;
11618;SDS011;5865;48.776;9.280;2023-11-21T06:58:56;3.80;;;1.00;;
11618;SDS011;5865;48.776;9.280;2023-11-21T07:01:24;1.53;;;1.00;;
11618;SDS011;5865;48.776;9.280;2023-11-21T07:03:54;2.33;;;1.00;;
11618;SDS011;5865;48.776;9.280;2023-11-21T07:06:21;1.03;;;0.97;;
11618;SDS011;5865;48.776;9.280;2023-11-21T07:08:53;4.03;;;1.13;;
11618;SDS011;5865;48.776;9.280;2023-11-21T07:11:20;1.40;;;1.10;;
11618;SDS011;5865;48.776;9.280;2023-11-21T07:13:47;1.73;;;1.20;;
11618;SDS011;5865;48.776;9.280;2023-11-21T07:16:15;1.23;;;1.10;;
11618;SDS011;5865;48.776;9.280;2023-11-21T07:18:43;2.33;;;1.17;;
11618;SDS011;5865;48.776;9.280;2023-11-21T07:21:14;1.20;;;1.10;;
11618;SDS011;5865;48.776;9.280;2023-11-21T07:23:46;2.27;;;1.17;;
11618;SDS011;5865;48.776;9.280;2023-11-21T07:26:17;5.50;;;1.33;;
11618;SDS011;5865;48.776;9.280;2023-11-21T07:28:45;5.47;;;1.50;;
11618;SDS011;5865;48.776;9.280;2023-11-21T07:31:13;1.77;;;1.40;;
11618;SDS011;5865;48.776;9.280;2023-11-21T07:33:40;1.90;;;1.30;;
11618;SDS011;5865;48.776;9.280;2023-11-21T07:36:09;5.83;;;2.90;;
11618;SDS011;5865;48.776;9.280;2023-11-21T07:38:37;2.27;;;1.90;;
11618;SDS011;5865;48.776;9.280;2023-11-21T07:41:05;2.20;;;1.80;;
11618;SDS011;5865;48.776;9.280;2023-11-21T08:02:55;2.63;;;1.30;;
11618;SDS011;5865;48.776;9.280;2023-11-21T08:05:39;1.80;;;1.30;;
11618;SDS011;5865;48.776;9.280;2023-11-21T08:08:11;1.70;;;1.10;;
11618;SDS011;5865;48.776;9.280;2023-11-21T08:10:52;1.43;;;1.13;;
11618;SDS011;5865;48.776;9.280;2023-11-21T08:13:33;2.90;;;1.50;;
11618;SDS011;5865;48.776;9.280;2023-11-21T08:16:15;1.60;;;1.20;;
11618;SDS011;5865;48.776;9.280;2023-11-21T08:18:56;2.47;;;1.20;;
11618;SDS011;5865;48.776;9.280;2023-11-21T08:21:28;1.87;;;1.30;;
11618;SDS011;5865;48.776;9.280;2023-11-21T08:24:10;2.37;;;1.30;;
11618;SDS011;5865;48.776;9.280;2023-11-21T08:26:51;2.30;;;1.00;;
11618;SDS011;5865;48.776;9.280;2023-11-21T08:29:32;1.60;;;1.10;;
11618;SDS011;5865;48.776;9.280;2023-11-21T08:57:58;2.57;;;1.30;;
11618;SDS011;5865;48.776;9.280;2023-11-21T09:00:43;1.87;;;1.40;;
11618;SDS011;5865;48.776;9.280;2023-11-21T09:03:25;1.70;;;1.00;;
11618;SDS011;5865;48.776;9.280;2023-11-21T09:06:09;1.50;;;1.00;;
11618;SDS011;5865;48.776;9.280;2023-11-21T09:08:39;1.10;;;1.00;;
11618;SDS011;5865;48.776;9.280;2023-11-21T09:11:20;1.80;;;0.90;;
11618;SDS011;5865;48.776;9.280;2023-11-21T09:23:28;1.37;;;1.00;;
11618;SDS011;5865;48.776;9.280;2023-11-21T09:26:09;1.03;;;1.00;;
11618;SDS011;5865;48.776;9.280;2023-11-21T09:28:50;1.63;;;1.03;;
11618;SDS011;5865;48.776;9.280;2023-11-21T09:31:25;1.13;;;1.03;;
11618;SDS011;5865;48.776;9.280;2023-11-21T09:34:07;1.90;;;1.23;;
11618;SDS011;5865;48.776;9.280;2023-11-21T10:02:04;2.77;;;1.30;;
11618;SDS011;5865;48.776;9.280;2023-11-21T10:04:37;1.30;;;1.07;;
11618;SDS011;5865;48.776;9.280;2023-11-21T10:07:19;1.87;;;1.03;;
11618;SDS011;5865;48.776;9.280;2023-11-21T10:09:57;2.83;;;1.40;;
11618;SDS011;5865;48.776;9.280;2023-11-21T10:12:41;1.53;;;1.10;;
11618;SDS011;5865;48.776;9.280;2023-11-21T10:18:18;3.33;;;1.10;;
11618;SDS011;5865;48.776;9.280;2023-11-21T10:20:59;1.63;;;1.10;;
11618;SDS011;5865;48.776;9.280;2023-11-21T10:23:46;1.30;;;1.10;;
11618;SDS011;5865;48.776;9.280;2023-11-21T10:26:28;2.50;;;1.20;;
11618;SDS011;5865;48.776;9.280;2023-11-21T10:29:07;2.20;;;1.20;;
11618;SDS011;5865;48.776;9.280;2023-11-21T10:32:00;1.33;;;1.20;;
11618;SDS011;5865;48.776;9.280;2023-11-21T10:34:55;2.50;;;1.50;;
11618;SDS011;5865;48.776;9.280;2023-11-21T10:37:36;1.20;;;1.10;;
11618;SDS011;5865;48.776;9.280;2023-11-21T10:40:11;1.23;;;1.13;;
11618;SDS011;5865;48.776;9.280;2023-11-21T10:42:39;1.90;;;1.10;;
11618;SDS011;5865;48.776;9.280;2023-11-21T10:45:21;1.70;;;1.00;;
11618;SDS011;5865;48.776;9.280;2023-11-21T10:57:58;1.77;;;1.40;;
11618;SDS011;5865;48.776;9.280;2023-11-21T11:00:41;1.83;;;1.30;;
11618;SDS011;5865;48.776;9.280;2023-11-21T11:03:24;2.63;;;1.30;;
11618;SDS011;5865;48.776;9.280;2023-11-21T11:06:31;2.73;;;1.40;;
11618;SDS011;5865;48.776;9.280;2023-11-21T11:09:13;1.43;;;1.30;;
11618;SDS011;5865;48.776;9.280;2023-11-21T11:12:04;1.47;;;1.30;;
11618;SDS011;5865;48.776;9.280;2023-11-21T11:15:04;1.20;;;1.10;;
11618;SDS011;5865;48.776;9.280;2023-11-21T11:21:05;1.20;;;0.97;;
11618;SDS011;5865;48.776;9.280;2023-11-21T11:24:05;1.10;;;1.00;;
11618;SDS011;5865;48.776;9.280;2023-11-21T11:27:01;1.20;;;1.10;;
11618;SDS011;5865;48.776;9.280;2023-11-21T11:36:27;1.03;;;0.90;;
11618;SDS011;5865;48.776;9.280;2023-11-21T11:39:27;0.63;;;0.63;;
11618;SDS011;5865;48.776;9.280;2023-11-21T11:42:17;0.90;;;0.70;;
11618;SDS011;5865;48.776;9.280;2023-11-21T11:48:20;0.80;;;0.80;;
11618;SDS011;5865;48.776;9.280;2023-11-21T11:51:10;0.60;;;0.60;;
11618;SDS011;5865;48.776;9.280;2023-11-21T11:57:32;0.80;;;0.80;;
11618;SDS011;5865;48.776;9.280;2023-11-21T12:00:08;2.07;;;0.90;;
11618;SDS011;5865;48.776;9.280;2023-11-21T12:03:19;2.47;;;1.13;;
11618;SDS011;5865;48.776;9.280;2023-11-21T12:05:56;1.77;;;1.20;;
11618;SDS011;5865;48.776;9.280;2023-11-21T12:08:30;2.73;;;2.53;;
11618;SDS011;5865;48.776;9.280;2023-11-21T12:14:17;1.30;;;1.20;;
11618;SDS011;5865;48.776;9.280;2023-11-21T12:16:58;2.70;;;2.50;;
11618;SDS011;5865;48.776;9.280;2023-11-21T12:19:41;1.30;;;1.20;;
11618;SDS011;5865;48.776;9.280;2023-11-21T12:22:22;1.30;;;1.20;;
11618;SDS011;5865;48.776;9.280;2023-11-21T12:25:07;1.20;;;1.10;;
11618;SDS011;5865;48.776;9.280;2023-11-21T12:27:54;1.53;;;1.20;;
11618;SDS011;5865;48.776;9.280;2023-11-21T12:30:36;1.23;;;1.13;;
11618;SDS011;5865;48.776;9.280;2023-11-21T12:33:20;1.40;;;1.30;;
11618;SDS011;5865;48.776;9.280;2023-11-21T12:35:54;1.20;;;1.10;;
11618;SDS011;5865;48.776;9.280;2023-11-21T12:38:35;1.77;;;1.30;;
11618;SDS011;5865;48.776;9.280;2023-11-21T12:41:15;1.30;;;1.20;;
11618;SDS011;5865;48.776;9.280;2023-11-21T12:52:01;1.90;;;1.10;;
11618;SDS011;5865;48.776;9.280;2023-11-21T12:54:52;1.10;;;1.00;;
11618;SDS011;5865;48.776;9.280;2023-11-21T12:57:43;1.40;;;1.30;;
11618;SDS011;5865;48.776;9.280;2023-11-21T13:00:28;1.10;;;1.10;;
11618;SDS011;5865;48.776;9.280;2023-11-21T13:03:12;1.70;;;1.13;;
11618;SDS011;5865;48.776;9.280;2023-11-21T13:05:55;1.70;;;1.30;;
11618;SDS011;5865;48.776;9.280;2023-11-21T13:08:47;1.37;;;1.27;;
11618;SDS011;5865;48.776;9.280;2023-11-21T13:11:37;2.13;;;1.30;;
11618;SDS011;5865;48.776;9.280;2023-11-21T13:17:03;1.60;;;1.50;;
11618;SDS011;5865;48.776;9.280;2023-11-21T13:19:44;1.83;;;1.37;;
11618;SDS011;5865;48.776;9.280;2023-11-21T13:22:39;1.40;;;1.30;;
11618;SDS011;5865;48.776;9.280;2023-11-21T13:35:10;1.60;;;1.50;;
11618;SDS011;5865;48.776;9.280;2023-11-21T13:37:55;1.87;;;1.77;;
11618;SDS011;5865;48.776;9.280;2023-11-21T13:40:36;2.20;;;1.80;;
11618;SDS011;5865;48.776;9.280;2023-11-21T13:45:57;2.30;;;2.10;;
11618;SDS011;5865;48.776;9.280;2023-11-21T13:48:29;2.60;;;2.13;;
11618;SDS011;5865;48.776;9.280;2023-11-21T13:51:06;3.20;;;2.90;;
11618;SDS011;5865;48.776;9.280;2023-11-21T13:53:41;2.77;;;2.40;;
11618;SDS011;5865;48.776;9.280;2023-11-21T13:56:18;2.60;;;2.40;;
11618;SDS011;5865;48.776;9.280;2023-11-21T13:58:49;2.40;;;2.20;;
11618;SDS011;5865;48.776;9.280;2023-11-21T14:01:17;2.80;;;2.57;;
11618;SDS011;5865;48.776;9.280;2023-11-21T14:04:05;3.17;;;2.73;;
11618;SDS011;5865;48.776;9.280;2023-11-21T14:06:44;3.67;;;2.90;;
11618;SDS011;5865;48.776;9.280;2023-11-21T14:09:13;2.77;;;2.57;;
11618;SDS011;5865;48.776;9.280;2023-11-21T14:11:48;2.80;;;2.60;;
11618;SDS011;5865;48.776;9.280;2023-11-21T14:14:18;3.33;;;3.03;;
11618;SDS011;5865;48.776;9.280;2023-11-21T14:16:47;3.27;;;2.80;;
11618;SDS011;5865;48.776;9.280;2023-11-21T14:19:16;3.90;;;3.50;;
11618;SDS011;5865;48.776;9.280;2023-11-21T14:21:43;3.47;;;3.17;;
11618;SDS011;5865;48.776;9.280;2023-11-21T14:24:13;3.73;;;3.10;;
11618;SDS011;5865;48.776;9.280;2023-11-21T14:26:43;2.90;;;2.70;;
11618;SDS011;5865;48.776;9.280;2023-11-21T14:29:11;4.83;;;3.43;;
11618;SDS011;5865;48.776;9.280;2023-11-21T14:31:39;3.03;;;2.60;;
11618;SDS011;5865;48.776;9.280;2023-11-21T14:34:06;2.70;;;2.50;;
11618;SDS011;5865;48.776;9.280;2023-11-21T14:36:35;2.77;;;2.17;;
11618;SDS011;5865;48.776;9.280;2023-11-21T14:39:04;3.20;;;1.97;;
11618;SDS011;5865;48.776;9.280;2023-11-21T14:41:34;2.40;;;2.20;;
11618;SDS011;5865;48.776;9.280;2023-11-21T14:44:03;2.20;;;2.00;;
11618;SDS011;5865;48.776;9.280;2023-11-21T14:46:32;2.07;;;1.73;;
11618;SDS011;5865;48.776;9.280;2023-11-21T14:49:00;2.10;;;1.90;;
11618;SDS011;5865;48.776;9.280;2023-11-21T14:51:46;2.20;;;2.00;;
11618;SDS011;5865;48.776;9.280;2023-11-21T14:54:26;2.00;;;1.80;;
11618;SDS011;5865;48.776;9.280;2023-11-21T14:57:05;1.70;;;1.60;;
11618;SDS011;5865;48.776;9.280;2023-11-21T14:59:36;1.50;;;1.40;;
11618;SDS011;5865;48.776;9.280;2023-11-21T15:02:02;2.37;;;1.70;;
11618;SDS011;5865;48.776;9.280;2023-11-21T15:04:41;2.33;;;1.43;;
11618;SDS011;5865;48.776;9.280;2023-11-21T15:07:09;1.60;;;1.40;;
11618;SDS011;5865;48.776;9.280;2023-11-21T15:09:37;2.00;;;1.40;;
11618;SDS011;5865;48.776;9.280;2023-11-21T15:12:06;1.60;;;1.50;;
11618;SDS011;5865;48.776;9.280;2023-11-21T15:14:42;1.50;;;1.40;;
11618;SDS011;5865;48.776;9.280;2023-11-21T15:17:11;1.77;;;1.50;;
11618;SDS011;5865;48.776;9.280;2023-11-21T15:19:41;1.70;;;1.60;;
11618;SDS011;5865;48.776;9.280;2023-11-21T15:22:11;1.73;;;1.50;;
11618;SDS011;5865;48.776;9.280;2023-11-21T15:24:40;2.13;;;1.40;;
11618;SDS011;5865;48.776;9.280;2023-11-21T15:27:10;1.60;;;1.50;;
11618;SDS011;5865;48.776;9.280;2023-11-21T15:29:38;1.93;;;1.80;;
11618;SDS011;5865;48.776;9.280;2023-11-21T15:32:05;2.53;;;2.00;;
11618;SDS011;5865;48.776;9.280;2023-11-21T15:34:33;3.53;;;1.70;;
11618;SDS011;5865;48.776;9.280;2023-11-21T15:37:00;3.10;;;2.30;;
11618;SDS011;5865;48.776;9.280;2023-11-21T15:39:30;2.97;;;2.07;;
11618;SDS011;5865;48.776;9.280;2023-11-21T15:41:57;2.83;;;2.10;;
11618;SDS011;5865;48.776;9.280;2023-11-21T15:44:26;3.33;;;2.30;;
11618;SDS011;5865;48.776;9.280;2023-11-21T15:46:55;2.10;;;1.90;;
11618;SDS011;5865;48.776;9.280;2023-11-21T15:49:22;2.93;;;2.33;;
11618;SDS011;5865;48.776;9.280;2023-11-21T15:51:52;2.87;;;2.30;;
11618;SDS011;5865;48.776;9.280;2023-11-21T15:54:22;2.33;;;2.00;;
11618;SDS011;5865;48.776;9.280;2023-11-21T15:56:53;3.17;;;2.40;;
11618;SDS011;5865;48.776;9.280;2023-11-21T15:59:23;5.10;;;2.43;;
11618;SDS011;5865;48.776;9.280;2023-11-21T16:01:56;5.20;;;3.00;;
11618;SDS011;5865;48.776;9.280;2023-11-21T16:04:23;3.73;;;2.70;;
11618;SDS011;5865;48.776;9.280;2023-11-21T16:06:52;3.73;;;3.20;;
11618;SDS011;5865;48.776;9.280;2023-11-21T16:09:19;5.33;;;3.20;;
11618;SDS011;5865;48.776;9.280;2023-11-21T16:11:48;3.47;;;3.17;;
11618;SDS011;5865;48.776;9.280;2023-11-21T16:14:22;4.40;;;3.43;;
11618;SDS011;5865;48.776;9.280;2023-11-21T16:16:54;3.80;;;3.40;;
11618;SDS011;5865;48.776;9.280;2023-11-21T16:19:22;5.23;;;4.00;;
11618;SDS011;5865;48.776;9.280;2023-11-21T16:21:50;3.47;;;3.17;;
11618;SDS011;5865;48.776;9.280;2023-11-21T16:24:18;5.53;;;3.50;;
11618;SDS011;5865;48.776;9.280;2023-11-21T16:26:46;5.07;;;3.10;;
11618;SDS011;5865;48.776;9.280;2023-11-21T16:29:14;3.90;;;3.30;;
11618;SDS011;5865;48.776;9.280;2023-11-21T16:31:43;4.30;;;3.40;;
11618;SDS011;5865;48.776;9.280;2023-11-21T16:34:11;4.23;;;3.60;;
11618;SDS011;5865;48.776;9.280;2023-11-21T16:36:39;4.17;;;3.30;;
11618;SDS011;5865;48.776;9.280;2023-11-21T16:39:07;4.83;;;3.37;;
11618;SDS011;5865;48.776;9.280;2023-11-21T16:41:35;4.73;;;3.70;;
11618;SDS011;5865;48.776;9.280;2023-11-21T16:44:02;4.43;;;4.00;;
11618;SDS011;5865;48.776;9.280;2023-11-21T16:46:30;5.90;;;3.83;;
11618;SDS011;5865;48.776;9.280;2023-11-21T16:49:00;5.43;;;4.57;;
11618;SDS011;5865;48.776;9.280;2023-11-21T16:51:28;5.13;;;3.97;;
11618;SDS011;5865;48.776;9.280;2023-11-21T16:53:55;6.77;;;4.47;;
11618;SDS011;5865;48.776;9.280;2023-11-21T16:56:23;6.60;;;4.40;;
11618;SDS011;5865;48.776;9.280;2023-11-21T16:58:51;5.70;;;4.77;;
11618;SDS011;5865;48.776;9.280;2023-11-21T17:01:19;6.43;;;4.57;;
11618;SDS011;5865;48.776;9.280;2023-11-21T17:03:50;8.03;;;5.57;;
11618;SDS011;5865;48.776;9.280;2023-11-21T17:06:19;5.97;;;5.07;;
11618;SDS011;5865;48.776;9.280;2023-11-21T17:08:48;8.87;;;5.37;;
11618;SDS011;5865;48.776;9.280;2023-11-21T17:11:15;7.47;;;5.60;;
11618;SDS011;5865;48.776;9.280;2023-11-21T17:13:43;8.07;;;6.40;;
11618;SDS011;5865;48.776;9.280;2023-11-21T17:16:10;6.93;;;5.63;;
11618;SDS011;5865;48.776;9.280;2023-11-21T17:18:37;7.73;;;5.93;;
11618;SDS011;5865;48.776;9.280;2023-11-21T17:21:05;7.33;;;6.40;;
11618;SDS011;5865;48.776;9.280;2023-11-21T17:23:35;10.90;;;7.23;;
11618;SDS011;5865;48.776;9.280;2023-11-21T17:26:02;10.30;;;7.10;;
11618;SDS011;5865;48.776;9.280;2023-11-21T17:28:30;10.63;;;6.83;;
11618;SDS011;5865;48.776;9.280;2023-11-21T17:30:57;10.13;;;7.47;;
11618;SDS011;5865;48.776;9.280;2023-11-21T17:33:24;9.83;;;7.27;;
11618;SDS011;5865;48.776;9.280;2023-11-21T17:35:52;9.67;;;7.77;;
11618;SDS011;5865;48.776;9.280;2023-11-21T17:38:20;10.43;;;8.70;;
11618;SDS011;5865;48.776;9.280;2023-11-21T17:40:50;11.37;;;8.87;;
11618;SDS011;5865;48.776;9.280;2023-11-21T17:43:21;7.67;;;6.33;;
11618;SDS011;5865;48.776;9.280;2023-11-21T17:45:49;10.87;;;8.83;;
11618;SDS011;5865;48.776;9.280;2023-11-21T17:48:17;10.10;;;7.47;;